sensor_id;sensor_type;location;lat;lon;timestamp;pressure;altitude;pressure_sealevel;temperature;humidity
27685;BME280;46113;50.130;8.526;2023-12-14T05:17:02;98423.28;;;2.93;92.32
27685;BME280;46113;50.130;8.526;2023-12-14T05:19:29;98421.59;;;2.92;92.20
27685;BME280;46113;50.130;8.526;2023-12-14T05:22:00;98425.03;;;2.92;92.58
27685;BME280;46113;50.130;8.526;2023-12-14T05:24:26;98431.53;;;3.04;91.73
27685;BME280;46113;50.130;8.526;2023-12-14T05:26:53;98440.09;;;3.08;91.18
27685;BME280;46113;50.130;8.526;2023-12-14T05:29:20;98446.50;;;3.01;91.97
27685;BME280;46113;50.130;8.526;2023-12-14T05:31:48;98456.03;;;3.02;91.45
27685;BME280;46113;50.130;8.526;2023-12-14T05:34:15;98460.72;;;2.71;93.41
27685;BME280;46113;50.130;8.526;2023-12-14T05:36:42;98467.91;;;2.64;93.41
27685;BME280;46113;50.130;8.526;2023-12-14T05:39:09;98474.00;;;2.87;93.08
27685;BME280;46113;50.130;8.526;2023-12-14T05:41:40;98473.81;;;2.93;91.97
27685;BME280;46113;50.130;8.526;2023-12-14T05:44:07;98477.53;;;2.86;91.70
27685;BME280;46113;50.130;8.526;2023-12-14T05:46:34;98476.72;;;2.86;91.92
27685;BME280;46113;50.130;8.526;2023-12-14T05:49:02;98475.66;;;2.90;92.19
27685;BME280;46113;50.130;8.526;2023-12-14T05:51:30;98484.13;;;2.97;92.17
27685;BME280;46113;50.130;8.526;2023-12-14T05:53:57;98496.25;;;2.98;91.83
27685;BME280;46113;50.130;8.526;2023-12-14T05:56:25;98499.63;;;3.01;92.12
27685;BME280;46113;50.130;8.526;2023-12-14T05:58:52;98501.91;;;2.87;91.41
27685;BME280;46113;50.130;8.526;2023-12-14T06:01:19;98508.44;;;2.99;91.89
27685;BME280;46113;50.130;8.526;2023-12-14T06:03:46;98514.50;;;2.99;91.97
27685;BME280;46113;50.130;8.526;2023-12-14T06:06:13;98523.81;;;3.06;91.50
27685;BME280;46113;50.130;8.526;2023-12-14T06:08:41;98526.06;;;2.93;92.77
27685;BME280;46113;50.130;8.526;2023-12-14T06:11:08;98530.31;;;2.96;92.67
27685;BME280;46113;50.130;8.526;2023-12-14T06:13:35;98528.25;;;3.04;92.28
27685;BME280;46113;50.130;8.526;2023-12-14T06:16:02;98529.72;;;3.12;92.11
27685;BME280;46113;50.130;8.526;2023-12-14T06:18:30;98538.41;;;3.12;91.66
27685;BME280;46113;50.130;8.526;2023-12-14T06:20:57;98542.22;;;3.03;92.15
27685;BME280;46113;50.130;8.526;2023-12-14T06:23:24;98544.06;;;3.01;91.75
27685;BME280;46113;50.130;8.526;2023-12-14T06:25:52;98549.28;;;3.01;92.11
27685;BME280;46113;50.130;8.526;2023-12-14T06:28:19;98559.56;;;3.06;91.82
27685;BME280;46113;50.130;8.526;2023-12-14T06:30:45;98566.66;;;3.02;91.91
27685;BME280;46113;50.130;8.526;2023-12-14T06:33:12;98563.13;;;3.03;91.66
27685;BME280;46113;50.130;8.526;2023-12-14T06:35:39;98581.25;;;3.08;92.00
27685;BME280;46113;50.130;8.526;2023-12-14T06:38:06;98580.06;;;3.17;91.21
27685;BME280;46113;50.130;8.526;2023-12-14T06:40:33;98579.31;;;3.13;91.45
27685;BME280;46113;50.130;8.526;2023-12-14T06:43:04;98582.41;;;3.01;91.20
27685;BME280;46113;50.130;8.526;2023-12-14T06:45:31;98585.31;;;2.93;91.17
27685;BME280;46113;50.130;8.526;2023-12-14T06:47:57;98597.91;;;3.05;91.89
27685;BME280;46113;50.130;8.526;2023-12-14T06:50:24;98589.94;;;3.08;91.26
27685;BME280;46113;50.130;8.526;2023-12-14T06:52:51;98597.91;;;3.05;91.32
27685;BME280;46113;50.130;8.526;2023-12-14T06:55:18;98598.88;;;3.03;91.91
27685;BME280;46113;50.130;8.526;2023-12-14T06:57:44;98600.31;;;3.12;90.81
27685;BME280;46113;50.130;8.526;2023-12-14T07:00:13;98604.84;;;3.06;91.02
27685;BME280;46113;50.130;8.526;2023-12-14T07:02:40;98606.25;;;2.91;90.59
27685;BME280;46113;50.130;8.526;2023-12-14T07:05:07;98607.16;;;2.90;90.56
27685;BME280;46113;50.130;8.526;2023-12-14T07:07:34;98614.22;;;2.88;90.38
27685;BME280;46113;50.130;8.526;2023-12-14T07:10:01;98613.72;;;3.02;90.49
27685;BME280;46113;50.130;8.526;2023-12-14T07:12:28;98617.56;;;2.92;90.04
27685;BME280;46113;50.130;8.526;2023-12-14T07:14:54;98621.50;;;3.04;90.00
27685;BME280;46113;50.130;8.526;2023-12-14T07:17:21;98624.41;;;2.96;89.51
27685;BME280;46113;50.130;8.526;2023-12-14T07:19:49;98633.00;;;2.98;89.92
27685;BME280;46113;50.130;8.526;2023-12-14T07:22:16;98642.59;;;2.98;90.23
27685;BME280;46113;50.130;8.526;2023-12-14T07:24:43;98641.44;;;3.06;89.88
27685;BME280;46113;50.130;8.526;2023-12-14T07:27:18;98646.66;;;3.06;89.69
27685;BME280;46113;50.130;8.526;2023-12-14T07:29:45;98657.28;;;3.02;90.05
27685;BME280;46113;50.130;8.526;2023-12-14T07:32:12;98653.19;;;2.94;89.66
27685;BME280;46113;50.130;8.526;2023-12-14T07:34:39;98661.44;;;2.82;89.45
27685;BME280;46113;50.130;8.526;2023-12-14T07:37:05;98667.25;;;2.90;89.50
27685;BME280;46113;50.130;8.526;2023-12-14T07:39:32;98669.47;;;2.77;89.50
27685;BME280;46113;50.130;8.526;2023-12-14T07:41:59;98673.56;;;2.85;89.49
27685;BME280;46113;50.130;8.526;2023-12-14T07:44:26;98673.88;;;3.01;88.85
27685;BME280;46113;50.130;8.526;2023-12-14T07:46:59;98682.75;;;2.95;88.89
27685;BME280;46113;50.130;8.526;2023-12-14T07:49:27;98686.28;;;2.94;89.57
27685;BME280;46113;50.130;8.526;2023-12-14T07:51:53;98684.97;;;3.07;89.08
27685;BME280;46113;50.130;8.526;2023-12-14T07:54:21;98693.97;;;2.73;89.29
27685;BME280;46113;50.130;8.526;2023-12-14T07:56:48;98708.16;;;2.66;89.35
27685;BME280;46113;50.130;8.526;2023-12-14T07:59:15;98704.72;;;2.91;89.01
27685;BME280;46113;50.130;8.526;2023-12-14T08:01:42;98713.81;;;3.04;88.12
27685;BME280;46113;50.130;8.526;2023-12-14T08:04:08;98716.88;;;2.92;88.78
27685;BME280;46113;50.130;8.526;2023-12-14T08:06:38;98729.88;;;2.93;88.93
27685;BME280;46113;50.130;8.526;2023-12-14T08:09:08;98727.72;;;2.79;89.17
27685;BME280;46113;50.130;8.526;2023-12-14T08:11:35;98729.25;;;2.87;89.52
27685;BME280;46113;50.130;8.526;2023-12-14T08:14:02;98726.88;;;3.04;88.50
27685;BME280;46113;50.130;8.526;2023-12-14T08:16:29;98730.19;;;3.10;88.40
27685;BME280;46113;50.130;8.526;2023-12-14T08:18:56;98733.28;;;2.95;88.74
27685;BME280;46113;50.130;8.526;2023-12-14T08:21:23;98737.28;;;3.06;88.07
27685;BME280;46113;50.130;8.526;2023-12-14T08:23:50;98744.59;;;2.96;88.95
27685;BME280;46113;50.130;8.526;2023-12-14T08:26:17;98753.69;;;3.10;88.70
27685;BME280;46113;50.130;8.526;2023-12-14T08:28:43;98763.31;;;3.09;88.59
27685;BME280;46113;50.130;8.526;2023-12-14T08:31:10;98761.69;;;2.79;88.65
27685;BME280;46113;50.130;8.526;2023-12-14T08:33:41;98776.75;;;2.98;88.83
27685;BME280;46113;50.130;8.526;2023-12-14T08:36:15;98774.78;;;3.05;88.91
27685;BME280;46113;50.130;8.526;2023-12-14T08:38:42;98779.16;;;3.04;88.66
27685;BME280;46113;50.130;8.526;2023-12-14T08:41:12;98777.91;;;3.15;88.29
27685;BME280;46113;50.130;8.526;2023-12-14T08:43:40;98782.13;;;3.19;87.69
27685;BME280;46113;50.130;8.526;2023-12-14T08:46:06;98786.59;;;3.17;87.37
27685;BME280;46113;50.130;8.526;2023-12-14T08:48:33;98797.31;;;3.09;87.45
27685;BME280;46113;50.130;8.526;2023-12-14T08:51:02;98794.94;;;3.27;87.50
27685;BME280;46113;50.130;8.526;2023-12-14T08:53:29;98800.59;;;3.40;87.16
27685;BME280;46113;50.130;8.526;2023-12-14T08:55:56;98816.47;;;3.35;86.77
27685;BME280;46113;50.130;8.526;2023-12-14T08:58:23;98815.78;;;3.30;87.29
27685;BME280;46113;50.130;8.526;2023-12-14T09:00:50;98814.59;;;3.39;86.91
27685;BME280;46113;50.130;8.526;2023-12-14T09:03:20;98818.13;;;3.38;87.10
27685;BME280;46113;50.130;8.526;2023-12-14T09:05:47;98822.69;;;3.56;86.23
27685;BME280;46113;50.130;8.526;2023-12-14T09:08:14;98827.47;;;3.43;86.65
27685;BME280;46113;50.130;8.526;2023-12-14T09:10:41;98833.69;;;3.41;87.34
27685;BME280;46113;50.130;8.526;2023-12-14T09:13:08;98838.75;;;3.20;86.90
27685;BME280;46113;50.130;8.526;2023-12-14T09:15:40;98852.50;;;3.25;87.23
27685;BME280;46113;50.130;8.526;2023-12-14T09:18:07;98851.84;;;3.45;86.65
27685;BME280;46113;50.130;8.526;2023-12-14T09:20:34;98861.34;;;3.48;86.63
27685;BME280;46113;50.130;8.526;2023-12-14T09:23:01;98869.91;;;3.53;86.18
27685;BME280;46113;50.130;8.526;2023-12-14T09:25:28;98874.13;;;3.30;86.34
27685;BME280;46113;50.130;8.526;2023-12-14T09:27:55;98872.34;;;3.32;86.23
27685;BME280;46113;50.130;8.526;2023-12-14T09:30:22;98879.66;;;3.48;85.93
27685;BME280;46113;50.130;8.526;2023-12-14T09:32:49;98880.88;;;3.38;85.71
27685;BME280;46113;50.130;8.526;2023-12-14T09:35:16;98889.75;;;3.06;86.42
27685;BME280;46113;50.130;8.526;2023-12-14T09:37:45;98893.56;;;3.23;86.55
27685;BME280;46113;50.130;8.526;2023-12-14T09:40:12;98895.97;;;3.29;86.44
27685;BME280;46113;50.130;8.526;2023-12-14T09:42:39;98901.69;;;3.41;86.36
27685;BME280;46113;50.130;8.526;2023-12-14T09:45:07;98902.44;;;3.44;86.54
27685;BME280;46113;50.130;8.526;2023-12-14T09:47:36;98908.41;;;3.48;86.32
27685;BME280;46113;50.130;8.526;2023-12-14T09:50:05;98912.56;;;3.28;87.24
27685;BME280;46113;50.130;8.526;2023-12-14T09:52:32;98907.50;;;3.24;87.26
27685;BME280;46113;50.130;8.526;2023-12-14T09:55:00;98909.69;;;3.36;86.21
27685;BME280;46113;50.130;8.526;2023-12-14T09:57:26;98915.81;;;3.62;85.83
27685;BME280;46113;50.130;8.526;2023-12-14T09:59:54;98923.31;;;3.73;85.62
27685;BME280;46113;50.130;8.526;2023-12-14T10:02:25;98929.16;;;3.54;85.21
27685;BME280;46113;50.130;8.526;2023-12-14T10:04:53;98928.59;;;3.44;85.86
27685;BME280;46113;50.130;8.526;2023-12-14T10:07:23;98926.16;;;3.38;85.62
27685;BME280;46113;50.130;8.526;2023-12-14T10:09:50;98937.50;;;3.66;84.83
27685;BME280;46113;50.130;8.526;2023-12-14T10:12:19;98933.53;;;3.54;85.00
27685;BME280;46113;50.130;8.526;2023-12-14T10:15:00;98934.78;;;3.42;85.98
27685;BME280;46113;50.130;8.526;2023-12-14T10:17:27;98940.19;;;3.64;85.46
27685;BME280;46113;50.130;8.526;2023-12-14T10:19:59;98939.41;;;3.60;85.65
27685;BME280;46113;50.130;8.526;2023-12-14T10:22:30;98935.31;;;3.52;85.89
27685;BME280;46113;50.130;8.526;2023-12-14T10:24:59;98938.75;;;3.54;85.66
27685;BME280;46113;50.130;8.526;2023-12-14T10:27:27;98943.84;;;3.58;85.63
27685;BME280;46113;50.130;8.526;2023-12-14T10:29:55;98940.59;;;3.50;86.19
27685;BME280;46113;50.130;8.526;2023-12-14T10:32:23;98951.09;;;3.48;86.59
27685;BME280;46113;50.130;8.526;2023-12-14T10:34:50;98956.03;;;3.59;86.39
27685;BME280;46113;50.130;8.526;2023-12-14T10:37:18;98956.34;;;3.48;85.96
27685;BME280;46113;50.130;8.526;2023-12-14T10:39:47;98959.59;;;3.30;86.50
27685;BME280;46113;50.130;8.526;2023-12-14T10:42:18;98969.50;;;3.47;85.99
27685;BME280;46113;50.130;8.526;2023-12-14T10:44:50;98969.72;;;3.12;86.66
27685;BME280;46113;50.130;8.526;2023-12-14T10:47:22;98971.78;;;3.29;86.66
27685;BME280;46113;50.130;8.526;2023-12-14T10:49:50;98971.19;;;3.21;87.58
27685;BME280;46113;50.130;8.526;2023-12-14T10:52:19;98973.03;;;3.17;88.00
27685;BME280;46113;50.130;8.526;2023-12-14T10:54:50;98982.81;;;3.11;88.19
27685;BME280;46113;50.130;8.526;2023-12-14T10:57:19;98986.28;;;3.40;87.06
27685;BME280;46113;50.130;8.526;2023-12-14T10:59:49;98992.66;;;3.31;87.15
27685;BME280;46113;50.130;8.526;2023-12-14T11:02:16;98995.81;;;3.14;88.15
27685;BME280;46113;50.130;8.526;2023-12-14T11:05:02;99007.59;;;3.27;88.04
27685;BME280;46113;50.130;8.526;2023-12-14T11:10:10;99014.63;;;2.97;87.55
27685;BME280;46113;50.130;8.526;2023-12-14T11:12:38;99016.06;;;3.07;87.71
27685;BME280;46113;50.130;8.526;2023-12-14T11:15:18;99020.47;;;3.05;88.21
27685;BME280;46113;50.130;8.526;2023-12-14T11:23:17;99015.78;;;3.43;87.53
27685;BME280;46113;50.130;8.526;2023-12-14T11:25:48;99022.09;;;3.38;87.66
27685;BME280;46113;50.130;8.526;2023-12-14T11:28:22;99029.81;;;3.41;87.31
27685;BME280;46113;50.130;8.526;2023-12-14T11:30:52;99030.22;;;3.28;86.60
27685;BME280;46113;50.130;8.526;2023-12-14T11:33:22;99034.81;;;3.20;86.74
27685;BME280;46113;50.130;8.526;2023-12-14T11:35:51;99041.22;;;3.38;86.81
27685;BME280;46113;50.130;8.526;2023-12-14T11:38:19;99041.59;;;3.56;86.32
27685;BME280;46113;50.130;8.526;2023-12-14T11:40:49;99045.66;;;3.65;86.08
27685;BME280;46113;50.130;8.526;2023-12-14T11:43:16;99044.78;;;3.93;85.68
27685;BME280;46113;50.130;8.526;2023-12-14T11:45:47;99047.78;;;3.80;84.59
27685;BME280;46113;50.130;8.526;2023-12-14T11:48:14;99056.72;;;4.00;83.51
27685;BME280;46113;50.130;8.526;2023-12-14T11:50:42;99056.47;;;4.08;82.44
27685;BME280;46113;50.130;8.526;2023-12-14T11:53:10;99061.69;;;4.08;81.81
27685;BME280;46113;50.130;8.526;2023-12-14T11:55:40;99059.41;;;3.98;81.59
27685;BME280;46113;50.130;8.526;2023-12-14T11:58:08;99065.66;;;4.20;81.62
27685;BME280;46113;50.130;8.526;2023-12-14T12:00:35;99065.97;;;4.10;80.99
27685;BME280;46113;50.130;8.526;2023-12-14T12:03:17;99070.63;;;4.02;81.26
27685;BME280;46113;50.130;8.526;2023-12-14T12:05:50;99074.78;;;4.08;81.17
27685;BME280;46113;50.130;8.526;2023-12-14T12:08:19;99068.97;;;3.72;81.02
27685;BME280;46113;50.130;8.526;2023-12-14T12:10:48;99073.31;;;4.00;81.85
27685;BME280;46113;50.130;8.526;2023-12-14T12:13:17;99081.06;;;3.48;82.22
27685;BME280;46113;50.130;8.526;2023-12-14T12:15:44;99077.72;;;3.71;82.04
27685;BME280;46113;50.130;8.526;2023-12-14T12:18:13;99080.59;;;3.64;82.47
27685;BME280;46113;50.130;8.526;2023-12-14T12:20:40;99086.28;;;3.48;81.06
27685;BME280;46113;50.130;8.526;2023-12-14T12:23:07;99082.75;;;3.49;80.89
27685;BME280;46113;50.130;8.526;2023-12-14T12:25:35;99080.56;;;3.65;81.45
27685;BME280;46113;50.130;8.526;2023-12-14T12:28:02;99099.09;;;3.29;82.04
27685;BME280;46113;50.130;8.526;2023-12-14T12:30:32;99096.16;;;3.38;82.77
27685;BME280;46113;50.130;8.526;2023-12-14T12:33:00;99096.06;;;3.41;82.69
27685;BME280;46113;50.130;8.526;2023-12-14T12:35:27;99100.41;;;3.42;82.25
27685;BME280;46113;50.130;8.526;2023-12-14T12:37:56;99103.06;;;3.41;82.98
27685;BME280;46113;50.130;8.526;2023-12-14T12:40:24;99099.31;;;3.50;82.89
27685;BME280;46113;50.130;8.526;2023-12-14T12:42:53;99099.41;;;3.46;83.60
27685;BME280;46113;50.130;8.526;2023-12-14T12:45:20;99100.16;;;3.50;83.43
27685;BME280;46113;50.130;8.526;2023-12-14T12:47:49;99110.41;;;3.28;83.34
27685;BME280;46113;50.130;8.526;2023-12-14T12:50:16;99116.38;;;3.33;83.83
27685;BME280;46113;50.130;8.526;2023-12-14T12:52:43;99113.94;;;3.57;83.31
27685;BME280;46113;50.130;8.526;2023-12-14T12:55:12;99115.06;;;3.48;84.07
27685;BME280;46113;50.130;8.526;2023-12-14T12:57:39;99123.41;;;3.61;84.00
27685;BME280;46113;50.130;8.526;2023-12-14T13:00:08;99125.75;;;3.40;82.85
27685;BME280;46113;50.130;8.526;2023-12-14T13:02:40;99122.31;;;3.68;83.13
27685;BME280;46113;50.130;8.526;2023-12-14T13:05:08;99129.06;;;3.76;83.05
27685;BME280;46113;50.130;8.526;2023-12-14T13:07:38;99131.94;;;3.68;81.26
27685;BME280;46113;50.130;8.526;2023-12-14T13:10:06;99129.69;;;3.55;81.35
27685;BME280;46113;50.130;8.526;2023-12-14T13:12:51;99133.91;;;3.59;81.64
27685;BME280;46113;50.130;8.526;2023-12-14T13:15:17;99134.38;;;3.72;81.90
27685;BME280;46113;50.130;8.526;2023-12-14T13:17:45;99142.47;;;3.65;81.34
27685;BME280;46113;50.130;8.526;2023-12-14T13:20:12;99142.69;;;3.58;81.42
27685;BME280;46113;50.130;8.526;2023-12-14T13:22:39;99139.91;;;3.63;81.58
27685;BME280;46113;50.130;8.526;2023-12-14T13:25:07;99147.28;;;3.79;81.02
27685;BME280;46113;50.130;8.526;2023-12-14T13:27:33;99141.09;;;3.81;80.77
27685;BME280;46113;50.130;8.526;2023-12-14T13:30:04;99148.88;;;3.83;81.06
27685;BME280;46113;50.130;8.526;2023-12-14T13:32:31;99149.28;;;3.70;80.63
27685;BME280;46113;50.130;8.526;2023-12-14T13:34:57;99154.94;;;3.56;80.32
27685;BME280;46113;50.130;8.526;2023-12-14T13:37:24;99160.47;;;3.76;81.10
27685;BME280;46113;50.130;8.526;2023-12-14T13:39:51;99166.69;;;3.71;81.29
27685;BME280;46113;50.130;8.526;2023-12-14T13:42:19;99172.88;;;3.69;81.89
27685;BME280;46113;50.130;8.526;2023-12-14T13:44:46;99172.72;;;3.73;82.26
27685;BME280;46113;50.130;8.526;2023-12-14T13:47:13;99182.69;;;3.62;82.18
27685;BME280;46113;50.130;8.526;2023-12-14T13:49:40;99186.88;;;3.68;82.76
27685;BME280;46113;50.130;8.526;2023-12-14T13:52:07;99193.78;;;3.39;83.85
27685;BME280;46113;50.130;8.526;2023-12-14T13:54:33;99200.78;;;3.38;83.23
27685;BME280;46113;50.130;8.526;2023-12-14T13:57:00;99199.97;;;3.36;81.15
27685;BME280;46113;50.130;8.526;2023-12-14T13:59:27;99204.88;;;3.17;81.09
27685;BME280;46113;50.130;8.526;2023-12-14T14:01:54;99212.28;;;3.32;82.49
27685;BME280;46113;50.130;8.526;2023-12-14T14:04:20;99218.44;;;3.31;82.87
27685;BME280;46113;50.130;8.526;2023-12-14T14:06:47;99224.53;;;3.30;83.59
27685;BME280;46113;50.130;8.526;2023-12-14T14:09:14;99237.66;;;2.97;83.37
27685;BME280;46113;50.130;8.526;2023-12-14T14:11:41;99232.69;;;3.19;83.89
27685;BME280;46113;50.130;8.526;2023-12-14T14:14:12;99243.19;;;3.18;83.76
27685;BME280;46113;50.130;8.526;2023-12-14T14:16:39;99248.22;;;3.26;84.10
27685;BME280;46113;50.130;8.526;2023-12-14T14:19:05;99249.94;;;3.25;83.22
27685;BME280;46113;50.130;8.526;2023-12-14T14:21:32;99254.16;;;2.98;81.91
27685;BME280;46113;50.130;8.526;2023-12-14T14:23:59;99260.19;;;3.01;82.85
27685;BME280;46113;50.130;8.526;2023-12-14T14:26:26;99260.00;;;3.09;82.96
27685;BME280;46113;50.130;8.526;2023-12-14T14:28:52;99277.28;;;2.80;82.12
27685;BME280;46113;50.130;8.526;2023-12-14T14:31:22;99281.56;;;2.82;82.52
27685;BME280;46113;50.130;8.526;2023-12-14T14:33:49;99279.63;;;2.91;83.27
27685;BME280;46113;50.130;8.526;2023-12-14T14:36:15;99288.03;;;2.67;84.50
27685;BME280;46113;50.130;8.526;2023-12-14T14:38:42;99290.78;;;3.31;85.26
27685;BME280;46113;50.130;8.526;2023-12-14T14:41:09;99293.38;;;2.63;84.82
27685;BME280;46113;50.130;8.526;2023-12-14T14:43:36;99299.28;;;2.71;85.11
27685;BME280;46113;50.130;8.526;2023-12-14T14:46:03;99303.81;;;2.63;86.04
27685;BME280;46113;50.130;8.526;2023-12-14T14:48:30;99309.84;;;2.65;86.57
27685;BME280;46113;50.130;8.526;2023-12-14T14:50:56;99314.16;;;2.67;86.25
27685;BME280;46113;50.130;8.526;2023-12-14T14:53:23;99315.16;;;2.63;87.15
27685;BME280;46113;50.130;8.526;2023-12-14T14:55:50;99316.31;;;2.50;87.70
27685;BME280;46113;50.130;8.526;2023-12-14T14:58:22;99318.56;;;2.65;87.27
27685;BME280;46113;50.130;8.526;2023-12-14T15:00:49;99321.22;;;2.64;87.55
27685;BME280;46113;50.130;8.526;2023-12-14T15:03:15;99317.47;;;2.74;87.18
27685;BME280;46113;50.130;8.526;2023-12-14T15:05:42;99329.72;;;2.72;87.24
27685;BME280;46113;50.130;8.526;2023-12-14T15:08:09;99327.16;;;2.71;86.94
27685;BME280;46113;50.130;8.526;2023-12-14T15:10:36;99335.78;;;2.73;86.91
27685;BME280;46113;50.130;8.526;2023-12-14T15:13:03;99342.84;;;2.69;87.19
27685;BME280;46113;50.130;8.526;2023-12-14T15:15:30;99344.69;;;2.65;87.47
27685;BME280;46113;50.130;8.526;2023-12-14T15:17:58;99344.69;;;2.65;87.83
27685;BME280;46113;50.130;8.526;2023-12-14T15:20:24;99353.28;;;2.71;87.35
27685;BME280;46113;50.130;8.526;2023-12-14T15:22:51;99363.66;;;2.74;87.56
27685;BME280;46113;50.130;8.526;2023-12-14T15:25:27;99370.00;;;2.63;88.78
27685;BME280;46113;50.130;8.526;2023-12-14T15:27:53;99378.44;;;2.75;88.15
27685;BME280;46113;50.130;8.526;2023-12-14T15:30:20;99374.28;;;2.66;88.24
27685;BME280;46113;50.130;8.526;2023-12-14T15:32:47;99384.84;;;2.61;88.92
27685;BME280;46113;50.130;8.526;2023-12-14T15:35:14;99391.53;;;2.73;88.50
27685;BME280;46113;50.130;8.526;2023-12-14T15:37:40;99389.72;;;2.75;88.09
27685;BME280;46113;50.130;8.526;2023-12-14T15:40:08;99398.69;;;2.65;88.52
27685;BME280;46113;50.130;8.526;2023-12-14T15:42:35;99404.19;;;2.52;89.42
27685;BME280;46113;50.130;8.526;2023-12-14T15:45:02;99406.09;;;2.44;89.62
27685;BME280;46113;50.130;8.526;2023-12-14T15:47:31;99407.72;;;2.51;89.30
27685;BME280;46113;50.130;8.526;2023-12-14T15:49:58;99412.94;;;2.51;88.82
27685;BME280;46113;50.130;8.526;2023-12-14T15:52:25;99418.78;;;2.63;88.11
27685;BME280;46113;50.130;8.526;2023-12-14T15:54:51;99420.16;;;2.40;89.36
27685;BME280;46113;50.130;8.526;2023-12-14T15:57:18;99431.19;;;2.10;89.82
27685;BME280;46113;50.130;8.526;2023-12-14T15:59:45;99434.03;;;2.40;88.95
27685;BME280;46113;50.130;8.526;2023-12-14T16:02:12;99442.66;;;2.44;88.92
27685;BME280;46113;50.130;8.526;2023-12-14T16:04:39;99448.31;;;2.24;87.92
27685;BME280;46113;50.130;8.526;2023-12-14T16:07:06;99463.69;;;2.38;87.56
27685;BME280;46113;50.130;8.526;2023-12-14T16:09:33;99463.06;;;2.26;88.19
27685;BME280;46113;50.130;8.526;2023-12-14T16:12:00;99475.91;;;2.37;88.06
27685;BME280;46113;50.130;8.526;2023-12-14T16:14:29;99473.31;;;2.37;88.08
27685;BME280;46113;50.130;8.526;2023-12-14T16:16:56;99470.75;;;2.33;87.80
27685;BME280;46113;50.130;8.526;2023-12-14T16:19:23;99475.97;;;2.34;88.66
27685;BME280;46113;50.130;8.526;2023-12-14T16:21:50;99478.63;;;2.31;88.85
27685;BME280;46113;50.130;8.526;2023-12-14T16:24:17;99488.75;;;2.47;87.58
27685;BME280;46113;50.130;8.526;2023-12-14T16:26:44;99487.25;;;2.35;88.68
27685;BME280;46113;50.130;8.526;2023-12-14T16:29:17;99489.09;;;2.29;88.97
27685;BME280;46113;50.130;8.526;2023-12-14T16:31:44;99494.88;;;2.46;88.27
27685;BME280;46113;50.130;8.526;2023-12-14T16:34:13;99495.75;;;2.46;88.95
27685;BME280;46113;50.130;8.526;2023-12-14T16:36:40;99489.69;;;2.44;88.08
27685;BME280;46113;50.130;8.526;2023-12-14T16:39:08;99500.31;;;2.35;89.43
27685;BME280;46113;50.130;8.526;2023-12-14T16:41:37;99497.56;;;2.43;89.15
27685;BME280;46113;50.130;8.526;2023-12-14T16:44:04;99500.19;;;2.43;88.91
27685;BME280;46113;50.130;8.526;2023-12-14T16:46:31;99508.94;;;2.40;88.71
27685;BME280;46113;50.130;8.526;2023-12-14T16:48:58;99514.34;;;2.31;89.18
27685;BME280;46113;50.130;8.526;2023-12-14T16:51:25;99524.84;;;2.26;88.57
27685;BME280;46113;50.130;8.526;2023-12-14T16:53:51;99523.56;;;2.01;87.72
27685;BME280;46113;50.130;8.526;2023-12-14T16:56:18;99530.91;;;2.28;88.48
27685;BME280;46113;50.130;8.526;2023-12-14T16:58:45;99530.94;;;2.26;88.89
27685;BME280;46113;50.130;8.526;2023-12-14T17:01:12;99539.63;;;2.27;88.64
27685;BME280;46113;50.130;8.526;2023-12-14T17:03:39;99537.94;;;2.24;88.38
27685;BME280;46113;50.130;8.526;2023-12-14T17:06:06;99541.38;;;2.28;88.15
27685;BME280;46113;50.130;8.526;2023-12-14T17:08:34;99544.06;;;2.22;88.46
27685;BME280;46113;50.130;8.526;2023-12-14T17:11:02;99544.16;;;2.17;88.22
27685;BME280;46113;50.130;8.526;2023-12-14T17:13:29;99554.63;;;2.15;88.25
27685;BME280;46113;50.130;8.526;2023-12-14T17:15:55;99554.72;;;2.11;87.34
27685;BME280;46113;50.130;8.526;2023-12-14T17:18:22;99567.97;;;2.00;87.98
27685;BME280;46113;50.130;8.526;2023-12-14T17:20:49;99578.28;;;2.06;87.36
27685;BME280;46113;50.130;8.526;2023-12-14T17:23:16;99581.97;;;1.94;86.53
27685;BME280;46113;50.130;8.526;2023-12-14T17:25:43;99591.63;;;1.89;85.91
27685;BME280;46113;50.130;8.526;2023-12-14T17:28:09;99591.97;;;1.67;85.58
27685;BME280;46113;50.130;8.526;2023-12-14T17:33:38;99597.38;;;1.56;86.37
27685;BME280;46113;50.130;8.526;2023-12-14T17:36:05;99604.91;;;1.14;84.16
27685;BME280;46113;50.130;8.526;2023-12-14T17:38:32;99604.81;;;1.21;83.58
27685;BME280;46113;50.130;8.526;2023-12-14T17:40:59;99618.59;;;1.30;83.45
27685;BME280;46113;50.130;8.526;2023-12-14T17:43:31;99616.31;;;1.06;84.31
27685;BME280;46113;50.130;8.526;2023-12-14T17:45:58;99629.16;;;1.19;84.26
27685;BME280;46113;50.130;8.526;2023-12-14T17:48:25;99624.00;;;1.16;85.37
27685;BME280;46113;50.130;8.526;2023-12-14T17:50:52;99637.78;;;1.26;84.97
27685;BME280;46113;50.130;8.526;2023-12-14T17:53:18;99642.06;;;1.30;84.70
27685;BME280;46113;50.130;8.526;2023-12-14T17:55:45;99643.66;;;1.40;84.81
27685;BME280;46113;50.130;8.526;2023-12-14T17:58:12;99648.75;;;1.49;84.26
27685;BME280;46113;50.130;8.526;2023-12-14T18:00:39;99654.00;;;1.48;84.31
27685;BME280;46113;50.130;8.526;2023-12-14T18:03:05;99650.59;;;1.41;84.87
27685;BME280;46113;50.130;8.526;2023-12-14T18:05:33;99656.75;;;1.37;84.13
27685;BME280;46113;50.130;8.526;2023-12-14T18:08:00;99662.72;;;1.45;84.35
27685;BME280;46113;50.130;8.526;2023-12-14T18:10:33;99667.94;;;1.45;84.28
27685;BME280;46113;50.130;8.526;2023-12-14T18:13:07;99677.59;;;1.37;84.10
27685;BME280;46113;50.130;8.526;2023-12-14T18:21:32;99689.72;;;1.40;84.85
27685;BME280;46113;50.130;8.526;2023-12-14T18:23:59;99680.19;;;1.40;84.96
27685;BME280;46113;50.130;8.526;2023-12-14T18:26:26;99684.59;;;1.35;85.04
27685;BME280;46113;50.130;8.526;2023-12-14T18:28:53;99695.91;;;1.34;84.70
27685;BME280;46113;50.130;8.526;2023-12-14T18:31:19;99697.81;;;1.21;84.97
27685;BME280;46113;50.130;8.526;2023-12-14T18:33:46;99706.44;;;1.25;84.63
27685;BME280;46113;50.130;8.526;2023-12-14T18:36:19;99703.88;;;1.20;85.27
27685;BME280;46113;50.130;8.526;2023-12-14T18:38:46;99717.69;;;1.27;84.80
27685;BME280;46113;50.130;8.526;2023-12-14T18:41:19;99720.31;;;1.27;85.14
27685;BME280;46113;50.130;8.526;2023-12-14T18:43:56;99729.03;;;1.24;85.59
27685;BME280;46113;50.130;8.526;2023-12-14T18:46:23;99732.44;;;1.29;85.24